sensor_id;sensor_type;location;lat;lon;timestamp;temperature;humidity
39931;DHT22;26635;-35.248;149.138;2022-08-19T00:02:21;11.90;93.80
39931;DHT22;26635;-35.248;149.138;2022-08-19T00:04:51;11.90;93.70
39931;DHT22;26635;-35.248;149.138;2022-08-19T00:07:22;11.90;93.90
39931;DHT22;26635;-35.248;149.138;2022-08-19T00:09:52;11.80;93.90
39931;DHT22;26635;-35.248;149.138;2022-08-19T00:12:24;11.90;94.10
39931;DHT22;26635;-35.248;149.138;2022-08-19T00:14:54;12.00;94.20
39931;DHT22;26635;-35.248;149.138;2022-08-19T00:17:25;12.00;94.10
39931;DHT22;26635;-35.248;149.138;2022-08-19T00:19:56;12.10;93.90
39931;DHT22;26635;-35.248;149.138;2022-08-19T00:22:26;12.20;93.40
39931;DHT22;26635;-35.248;149.138;2022-08-19T00:24:57;12.20;93.00
39931;DHT22;26635;-35.248;149.138;2022-08-19T00:27:29;12.20;92.80
39931;DHT22;26635;-35.248;149.138;2022-08-19T00:30:03;12.20;92.90
39931;DHT22;26635;-35.248;149.138;2022-08-19T00:32:35;12.20;92.70
39931;DHT22;26635;-35.248;149.138;2022-08-19T00:35:06;12.10;92.80
39931;DHT22;26635;-35.248;149.138;2022-08-19T00:37:41;12.10;93.00
39931;DHT22;26635;-35.248;149.138;2022-08-19T00:40:13;12.10;93.10
39931;DHT22;26635;-35.248;149.138;2022-08-19T00:42:44;12.10;93.10
39931;DHT22;26635;-35.248;149.138;2022-08-19T00:45:19;12.10;93.10
39931;DHT22;26635;-35.248;149.138;2022-08-19T00:47:50;12.10;93.20
39931;DHT22;26635;-35.248;149.138;2022-08-19T00:50:21;12.10;93.40
39931;DHT22;26635;-35.248;149.138;2022-08-19T00:52:52;12.10;93.40
39931;DHT22;26635;-35.248;149.138;2022-08-19T00:55:26;12.20;93.40
39931;DHT22;26635;-35.248;149.138;2022-08-19T00:58:04;12.30;93.40
39931;DHT22;26635;-35.248;149.138;2022-08-19T01:00:39;12.30;93.20
39931;DHT22;26635;-35.248;149.138;2022-08-19T01:03:14;12.30;93.10
39931;DHT22;26635;-35.248;149.138;2022-08-19T01:05:48;12.40;92.70
39931;DHT22;26635;-35.248;149.138;2022-08-19T01:08:19;12.40;92.70
39931;DHT22;26635;-35.248;149.138;2022-08-19T01:10:56;12.60;92.40
39931;DHT22;26635;-35.248;149.138;2022-08-19T01:13:30;12.70;91.80
39931;DHT22;26635;-35.248;149.138;2022-08-19T01:16:19;12.80;91.80
39931;DHT22;26635;-35.248;149.138;2022-08-19T01:18:51;13.00;91.30
39931;DHT22;26635;-35.248;149.138;2022-08-19T01:21:34;13.10;91.40
39931;DHT22;26635;-35.248;149.138;2022-08-19T01:24:08;13.20;91.30
39931;DHT22;26635;-35.248;149.138;2022-08-19T01:26:43;13.50;91.30
39931;DHT22;26635;-35.248;149.138;2022-08-19T01:29:15;13.80;90.00
39931;DHT22;26635;-35.248;149.138;2022-08-19T01:31:48;14.00;89.90
39931;DHT22;26635;-35.248;149.138;2022-08-19T01:34:22;14.20;88.60
39931;DHT22;26635;-35.248;149.138;2022-08-19T01:36:52;14.30;89.60
39931;DHT22;26635;-35.248;149.138;2022-08-19T01:39:24;14.30;86.10
39931;DHT22;26635;-35.248;149.138;2022-08-19T01:42:07;14.30;86.70
39931;DHT22;26635;-35.248;149.138;2022-08-19T01:44:40;14.20;86.70
39931;DHT22;26635;-35.248;149.138;2022-08-19T01:47:10;14.10;86.20
39931;DHT22;26635;-35.248;149.138;2022-08-19T01:49:41;14.10;86.00
39931;DHT22;26635;-35.248;149.138;2022-08-19T01:52:12;14.10;85.60
39931;DHT22;26635;-35.248;149.138;2022-08-19T01:54:43;14.20;86.20
39931;DHT22;26635;-35.248;149.138;2022-08-19T01:57:14;14.30;84.30
39931;DHT22;26635;-35.248;149.138;2022-08-19T01:59:46;14.30;84.30
39931;DHT22;26635;-35.248;149.138;2022-08-19T02:02:16;14.30;82.70
39931;DHT22;26635;-35.248;149.138;2022-08-19T02:04:47;14.30;81.10
39931;DHT22;26635;-35.248;149.138;2022-08-19T02:07:22;14.20;80.80
39931;DHT22;26635;-35.248;149.138;2022-08-19T02:09:55;14.00;80.40
39931;DHT22;26635;-35.248;149.138;2022-08-19T02:12:35;13.80;80.60
39931;DHT22;26635;-35.248;149.138;2022-08-19T02:15:06;13.60;80.20
39931;DHT22;26635;-35.248;149.138;2022-08-19T02:17:37;13.10;77.50
39931;DHT22;26635;-35.248;149.138;2022-08-19T02:20:09;12.50;78.40
39931;DHT22;26635;-35.248;149.138;2022-08-19T02:22:41;11.90;80.00
39931;DHT22;26635;-35.248;149.138;2022-08-19T02:25:13;11.50;81.40
39931;DHT22;26635;-35.248;149.138;2022-08-19T02:27:46;11.10;83.10
39931;DHT22;26635;-35.248;149.138;2022-08-19T02:30:18;10.80;83.70
39931;DHT22;26635;-35.248;149.138;2022-08-19T02:32:48;10.50;84.50
39931;DHT22;26635;-35.248;149.138;2022-08-19T02:35:19;10.30;87.90
39931;DHT22;26635;-35.248;149.138;2022-08-19T02:37:50;10.10;90.90
39931;DHT22;26635;-35.248;149.138;2022-08-19T02:40:39;9.90;92.50
39931;DHT22;26635;-35.248;149.138;2022-08-19T02:43:10;9.80;93.80
39931;DHT22;26635;-35.248;149.138;2022-08-19T02:45:41;9.80;93.50
39931;DHT22;26635;-35.248;149.138;2022-08-19T02:48:12;9.80;93.70
39931;DHT22;26635;-35.248;149.138;2022-08-19T02:50:52;9.70;93.90
39931;DHT22;26635;-35.248;149.138;2022-08-19T02:53:27;9.60;94.00
39931;DHT22;26635;-35.248;149.138;2022-08-19T02:55:58;9.70;94.10
39931;DHT22;26635;-35.248;149.138;2022-08-19T02:58:28;9.70;94.40
39931;DHT22;26635;-35.248;149.138;2022-08-19T03:00:59;9.80;93.70
39931;DHT22;26635;-35.248;149.138;2022-08-19T03:03:29;9.70;94.00
39931;DHT22;26635;-35.248;149.138;2022-08-19T03:06:12;9.80;94.60
39931;DHT22;26635;-35.248;149.138;2022-08-19T03:08:46;9.90;94.50
39931;DHT22;26635;-35.248;149.138;2022-08-19T03:11:20;9.90;94.20
39931;DHT22;26635;-35.248;149.138;2022-08-19T03:13:51;10.00;94.30
39931;DHT22;26635;-35.248;149.138;2022-08-19T03:16:24;10.10;94.40
39931;DHT22;26635;-35.248;149.138;2022-08-19T03:19:03;10.20;94.20
39931;DHT22;26635;-35.248;149.138;2022-08-19T03:21:34;10.40;94.30
39931;DHT22;26635;-35.248;149.138;2022-08-19T03:24:08;10.50;94.30
39931;DHT22;26635;-35.248;149.138;2022-08-19T03:26:45;10.60;93.60
39931;DHT22;26635;-35.248;149.138;2022-08-19T03:29:17;10.60;94.20
39931;DHT22;26635;-35.248;149.138;2022-08-19T03:32:00;10.70;93.90
39931;DHT22;26635;-35.248;149.138;2022-08-19T03:34:33;10.80;93.60
39931;DHT22;26635;-35.248;149.138;2022-08-19T03:37:12;10.80;93.00
39931;DHT22;26635;-35.248;149.138;2022-08-19T03:39:43;10.90;93.60
39931;DHT22;26635;-35.248;149.138;2022-08-19T03:42:14;10.90;93.70
39931;DHT22;26635;-35.248;149.138;2022-08-19T03:45:06;10.90;94.00
39931;DHT22;26635;-35.248;149.138;2022-08-19T03:47:37;11.00;93.50
39931;DHT22;26635;-35.248;149.138;2022-08-19T03:50:10;11.10;93.70
39931;DHT22;26635;-35.248;149.138;2022-08-19T03:52:49;11.10;92.80
39931;DHT22;26635;-35.248;149.138;2022-08-19T03:55:22;11.00;93.10
39931;DHT22;26635;-35.248;149.138;2022-08-19T03:57:54;11.10;93.60
39931;DHT22;26635;-35.248;149.138;2022-08-19T04:00:26;11.10;93.20
39931;DHT22;26635;-35.248;149.138;2022-08-19T04:02:59;11.10;93.20
39931;DHT22;26635;-35.248;149.138;2022-08-19T04:05:31;11.00;92.80
39931;DHT22;26635;-35.248;149.138;2022-08-19T04:08:02;11.00;92.90
39931;DHT22;26635;-35.248;149.138;2022-08-19T04:10:40;11.00;93.10
39931;DHT22;26635;-35.248;149.138;2022-08-19T04:13:14;11.10;93.40
39931;DHT22;26635;-35.248;149.138;2022-08-19T04:15:46;11.20;93.60
39931;DHT22;26635;-35.248;149.138;2022-08-19T04:18:16;11.30;93.00
39931;DHT22;26635;-35.248;149.138;2022-08-19T04:20:49;11.40;92.60
39931;DHT22;26635;-35.248;149.138;2022-08-19T04:23:21;11.40;92.60
39931;DHT22;26635;-35.248;149.138;2022-08-19T04:25:56;11.40;92.40
39931;DHT22;26635;-35.248;149.138;2022-08-19T04:28:30;11.40;92.30
39931;DHT22;26635;-35.248;149.138;2022-08-19T04:31:02;11.40;92.30
39931;DHT22;26635;-35.248;149.138;2022-08-19T04:33:35;11.40;92.90
39931;DHT22;26635;-35.248;149.138;2022-08-19T04:36:06;11.40;93.40
39931;DHT22;26635;-35.248;149.138;2022-08-19T04:38:47;11.40;93.30
39931;DHT22;26635;-35.248;149.138;2022-08-19T04:41:19;11.50;93.30
39931;DHT22;26635;-35.248;149.138;2022-08-19T04:44:09;11.60;94.00
39931;DHT22;26635;-35.248;149.138;2022-08-19T04:46:40;11.70;93.40
39931;DHT22;26635;-35.248;149.138;2022-08-19T04:49:21;11.70;92.90
39931;DHT22;26635;-35.248;149.138;2022-08-19T04:51:54;11.80;92.70
39931;DHT22;26635;-35.248;149.138;2022-08-19T04:54:26;11.90;92.30
39931;DHT22;26635;-35.248;149.138;2022-08-19T04:57:07;12.00;92.20
39931;DHT22;26635;-35.248;149.138;2022-08-19T04:59:41;12.10;91.20
39931;DHT22;26635;-35.248;149.138;2022-08-19T05:02:12;12.20;91.30
39931;DHT22;26635;-35.248;149.138;2022-08-19T05:04:44;12.20;90.90
39931;DHT22;26635;-35.248;149.138;2022-08-19T05:07:16;12.30;90.60
39931;DHT22;26635;-35.248;149.138;2022-08-19T05:09:48;12.30;90.60
39931;DHT22;26635;-35.248;149.138;2022-08-19T05:12:26;12.30;90.40
39931;DHT22;26635;-35.248;149.138;2022-08-19T05:14:59;12.40;90.40
39931;DHT22;26635;-35.248;149.138;2022-08-19T05:17:30;12.50;90.30
39931;DHT22;26635;-35.248;149.138;2022-08-19T05:20:07;12.50;90.40
39931;DHT22;26635;-35.248;149.138;2022-08-19T05:22:55;12.60;90.10
39931;DHT22;26635;-35.248;149.138;2022-08-19T05:25:26;12.60;89.10
39931;DHT22;26635;-35.248;149.138;2022-08-19T05:27:58;12.60;90.00
39931;DHT22;26635;-35.248;149.138;2022-08-19T05:30:29;12.60;90.20
39931;DHT22;26635;-35.248;149.138;2022-08-19T05:33:14;12.60;90.60
39931;DHT22;26635;-35.248;149.138;2022-08-19T05:35:45;12.60;90.00
39931;DHT22;26635;-35.248;149.138;2022-08-19T05:38:17;12.60;89.50
39931;DHT22;26635;-35.248;149.138;2022-08-19T05:40:50;12.60;81.70
39931;DHT22;26635;-35.248;149.138;2022-08-19T05:43:22;12.60;74.80
39931;DHT22;26635;-35.248;149.138;2022-08-19T05:45:53;12.60;76.40
39931;DHT22;26635;-35.248;149.138;2022-08-19T05:48:25;12.60;76.10
39931;DHT22;26635;-35.248;149.138;2022-08-19T05:50:56;12.60;77.10
39931;DHT22;26635;-35.248;149.138;2022-08-19T05:53:29;12.60;74.90
39931;DHT22;26635;-35.248;149.138;2022-08-19T05:56:07;12.60;73.10
39931;DHT22;26635;-35.248;149.138;2022-08-19T05:58:38;12.60;74.70
39931;DHT22;26635;-35.248;149.138;2022-08-19T06:01:15;12.60;77.00
39931;DHT22;26635;-35.248;149.138;2022-08-19T06:03:47;12.60;74.60
39931;DHT22;26635;-35.248;149.138;2022-08-19T06:06:19;12.60;76.10
39931;DHT22;26635;-35.248;149.138;2022-08-19T06:08:50;12.60;76.40
39931;DHT22;26635;-35.248;149.138;2022-08-19T06:11:38;12.60;72.30
39931;DHT22;26635;-35.248;149.138;2022-08-19T06:14:16;12.60;72.90
39931;DHT22;26635;-35.248;149.138;2022-08-19T06:16:55;12.40;72.00
39931;DHT22;26635;-35.248;149.138;2022-08-19T06:19:29;12.40;72.30
39931;DHT22;26635;-35.248;149.138;2022-08-19T06:22:10;12.30;72.50
39931;DHT22;26635;-35.248;149.138;2022-08-19T06:24:42;12.20;73.30
39931;DHT22;26635;-35.248;149.138;2022-08-19T06:27:12;12.20;75.00
39931;DHT22;26635;-35.248;149.138;2022-08-19T06:29:43;12.20;75.00
39931;DHT22;26635;-35.248;149.138;2022-08-19T06:32:17;12.10;74.30
39931;DHT22;26635;-35.248;149.138;2022-08-19T06:34:49;12.10;74.60
39931;DHT22;26635;-35.248;149.138;2022-08-19T06:37:20;12.00;74.40
39931;DHT22;26635;-35.248;149.138;2022-08-19T06:39:52;11.90;75.80
39931;DHT22;26635;-35.248;149.138;2022-08-19T06:42:25;11.80;75.20
39931;DHT22;26635;-35.248;149.138;2022-08-19T06:44:57;11.70;76.10
39931;DHT22;26635;-35.248;149.138;2022-08-19T06:47:36;11.70;76.60
39931;DHT22;26635;-35.248;149.138;2022-08-19T06:50:09;11.60;76.60
39931;DHT22;26635;-35.248;149.138;2022-08-19T06:52:40;11.50;76.90
39931;DHT22;26635;-35.248;149.138;2022-08-19T06:55:11;11.50;77.50
39931;DHT22;26635;-35.248;149.138;2022-08-19T06:57:46;11.50;78.00
39931;DHT22;26635;-35.248;149.138;2022-08-19T07:00:21;11.50;78.80
39931;DHT22;26635;-35.248;149.138;2022-08-19T07:02:53;11.40;75.80
39931;DHT22;26635;-35.248;149.138;2022-08-19T07:05:31;11.40;76.40
39931;DHT22;26635;-35.248;149.138;2022-08-19T07:08:06;11.40;76.20
39931;DHT22;26635;-35.248;149.138;2022-08-19T07:10:43;11.30;76.80
39931;DHT22;26635;-35.248;149.138;2022-08-19T07:13:14;11.30;78.00
39931;DHT22;26635;-35.248;149.138;2022-08-19T07:15:46;11.30;77.00
39931;DHT22;26635;-35.248;149.138;2022-08-19T07:18:20;11.30;78.40
39931;DHT22;26635;-35.248;149.138;2022-08-19T07:21:07;11.20;78.50
39931;DHT22;26635;-35.248;149.138;2022-08-19T07:23:39;11.20;78.50
39931;DHT22;26635;-35.248;149.138;2022-08-19T07:26:20;11.10;79.10
39931;DHT22;26635;-35.248;149.138;2022-08-19T07:28:56;11.10;79.60
39931;DHT22;26635;-35.248;149.138;2022-08-19T07:31:28;11.00;79.70
39931;DHT22;26635;-35.248;149.138;2022-08-19T07:34:00;10.90;79.90
39931;DHT22;26635;-35.248;149.138;2022-08-19T07:36:35;10.90;80.00
39931;DHT22;26635;-35.248;149.138;2022-08-19T07:39:14;10.80;80.60
39931;DHT22;26635;-35.248;149.138;2022-08-19T07:41:47;10.70;80.90
39931;DHT22;26635;-35.248;149.138;2022-08-19T07:44:19;10.70;80.70
39931;DHT22;26635;-35.248;149.138;2022-08-19T07:46:53;10.60;80.50
39931;DHT22;26635;-35.248;149.138;2022-08-19T07:49:26;10.50;80.80
39931;DHT22;26635;-35.248;149.138;2022-08-19T07:52:03;10.50;80.30
39931;DHT22;26635;-35.248;149.138;2022-08-19T07:54:37;10.40;81.00
39931;DHT22;26635;-35.248;149.138;2022-08-19T07:57:08;10.40;80.80
39931;DHT22;26635;-35.248;149.138;2022-08-19T07:59:51;10.40;81.20
39931;DHT22;26635;-35.248;149.138;2022-08-19T08:06:53;10.30;81.90
39931;DHT22;26635;-35.248;149.138;2022-08-19T08:09:47;10.20;82.60
39931;DHT22;26635;-35.248;149.138;2022-08-19T08:12:40;10.20;82.20
39931;DHT22;26635;-35.248;149.138;2022-08-19T08:15:31;10.20;83.50
39931;DHT22;26635;-35.248;149.138;2022-08-19T08:18:09;10.10;83.80
39931;DHT22;26635;-35.248;149.138;2022-08-19T08:20:41;10.00;83.40
39931;DHT22;26635;-35.248;149.138;2022-08-19T08:23:12;10.00;83.60
39931;DHT22;26635;-35.248;149.138;2022-08-19T08:26:00;9.90;83.40
39931;DHT22;26635;-35.248;149.138;2022-08-19T08:28:33;9.90;83.60
39931;DHT22;26635;-35.248;149.138;2022-08-19T08:31:04;9.80;84.30
39931;DHT22;26635;-35.248;149.138;2022-08-19T08:33:36;9.80;84.10
39931;DHT22;26635;-35.248;149.138;2022-08-19T08:36:13;9.80;84.60
39931;DHT22;26635;-35.248;149.138;2022-08-19T08:38:47;9.80;84.20
39931;DHT22;26635;-35.248;149.138;2022-08-19T08:44:42;9.70;84.30
39931;DHT22;26635;-35.248;149.138;2022-08-19T08:47:20;9.70;84.30
39931;DHT22;26635;-35.248;149.138;2022-08-19T08:50:24;9.70;84.70
39931;DHT22;26635;-35.248;149.138;2022-08-19T08:52:58;9.70;85.50
39931;DHT22;26635;-35.248;149.138;2022-08-19T08:55:30;9.60;83.90
39931;DHT22;26635;-35.248;149.138;2022-08-19T08:58:13;9.60;83.90
39931;DHT22;26635;-35.248;149.138;2022-08-19T09:00:48;9.60;83.40
39931;DHT22;26635;-35.248;149.138;2022-08-19T09:03:22;9.60;83.90
39931;DHT22;26635;-35.248;149.138;2022-08-19T09:11:45;9.40;84.60
39931;DHT22;26635;-35.248;149.138;2022-08-19T09:17:13;9.40;85.60
39931;DHT22;26635;-35.248;149.138;2022-08-19T09:19:58;9.40;84.60
39931;DHT22;26635;-35.248;149.138;2022-08-19T09:22:32;9.30;85.50
39931;DHT22;26635;-35.248;149.138;2022-08-19T09:25:06;9.30;85.00
39931;DHT22;26635;-35.248;149.138;2022-08-19T09:27:49;9.20;84.30
39931;DHT22;26635;-35.248;149.138;2022-08-19T09:31:35;9.10;85.30
39931;DHT22;26635;-35.248;149.138;2022-08-19T09:34:06;9.00;86.50
39931;DHT22;26635;-35.248;149.138;2022-08-19T09:36:49;9.00;86.50
39931;DHT22;26635;-35.248;149.138;2022-08-19T09:39:24;8.90;86.50
39931;DHT22;26635;-35.248;149.138;2022-08-19T09:42:09;8.90;85.80
39931;DHT22;26635;-35.248;149.138;2022-08-19T09:44:49;8.90;85.90
39931;DHT22;26635;-35.248;149.138;2022-08-19T09:47:24;8.90;86.00
39931;DHT22;26635;-35.248;149.138;2022-08-19T09:49:55;9.00;86.00
39931;DHT22;26635;-35.248;149.138;2022-08-19T09:52:33;8.90;85.80
39931;DHT22;26635;-35.248;149.138;2022-08-19T09:55:22;9.00;86.10
39931;DHT22;26635;-35.248;149.138;2022-08-19T09:58:12;9.00;86.20
39931;DHT22;26635;-35.248;149.138;2022-08-19T10:00:57;9.00;86.30
39931;DHT22;26635;-35.248;149.138;2022-08-19T10:03:31;9.00;85.90
39931;DHT22;26635;-35.248;149.138;2022-08-19T10:06:06;8.90;85.90
39931;DHT22;26635;-35.248;149.138;2022-08-19T10:08:45;8.90;86.40
39931;DHT22;26635;-35.248;149.138;2022-08-19T10:11:22;8.90;86.80
39931;DHT22;26635;-35.248;149.138;2022-08-19T10:14:12;8.90;86.70
39931;DHT22;26635;-35.248;149.138;2022-08-19T10:16:52;8.90;86.70
39931;DHT22;26635;-35.248;149.138;2022-08-19T10:19:26;8.80;86.90
39931;DHT22;26635;-35.248;149.138;2022-08-19T10:22:03;8.80;87.50
39931;DHT22;26635;-35.248;149.138;2022-08-19T10:24:39;8.70;86.80
39931;DHT22;26635;-35.248;149.138;2022-08-19T10:27:53;8.70;87.60
39931;DHT22;26635;-35.248;149.138;2022-08-19T10:30:41;8.70;87.20
39931;DHT22;26635;-35.248;149.138;2022-08-19T10:33:27;8.70;87.30
39931;DHT22;26635;-35.248;149.138;2022-08-19T10:36:22;8.70;87.80
39931;DHT22;26635;-35.248;149.138;2022-08-19T10:38:57;8.60;88.20
39931;DHT22;26635;-35.248;149.138;2022-08-19T10:41:33;8.50;88.80
39931;DHT22;26635;-35.248;149.138;2022-08-19T10:48:05;8.50;87.70
39931;DHT22;26635;-35.248;149.138;2022-08-19T10:51:15;8.40;88.80
39931;DHT22;26635;-35.248;149.138;2022-08-19T10:54:17;8.30;89.10
39931;DHT22;26635;-35.248;149.138;2022-08-19T10:57:00;8.30;88.90
39931;DHT22;26635;-35.248;149.138;2022-08-19T11:00:15;8.20;89.10
39931;DHT22;26635;-35.248;149.138;2022-08-19T11:03:37;8.20;88.50
39931;DHT22;26635;-35.248;149.138;2022-08-19T11:06:50;8.10;88.80
39931;DHT22;26635;-35.248;149.138;2022-08-19T11:09:46;8.10;88.20
39931;DHT22;26635;-35.248;149.138;2022-08-19T11:16:32;8.00;89.10
39931;DHT22;26635;-35.248;149.138;2022-08-19T11:20:45;8.00;88.90
39931;DHT22;26635;-35.248;149.138;2022-08-19T11:24:27;8.00;88.10
39931;DHT22;26635;-35.248;149.138;2022-08-19T11:31:21;8.10;87.60
39931;DHT22;26635;-35.248;149.138;2022-08-19T11:34:26;8.10;86.30
39931;DHT22;26635;-35.248;149.138;2022-08-19T11:37:10;8.10;86.70
39931;DHT22;26635;-35.248;149.138;2022-08-19T11:44:36;8.10;86.70
39931;DHT22;26635;-35.248;149.138;2022-08-19T11:47:52;8.10;85.80
39931;DHT22;26635;-35.248;149.138;2022-08-19T11:51:06;8.10;85.60
39931;DHT22;26635;-35.248;149.138;2022-08-19T11:54:33;8.10;86.20
39931;DHT22;26635;-35.248;149.138;2022-08-19T12:01:09;8.00;86.10
39931;DHT22;26635;-35.248;149.138;2022-08-19T12:04:00;8.00;86.70
39931;DHT22;26635;-35.248;149.138;2022-08-19T12:06:46;8.00;85.30
39931;DHT22;26635;-35.248;149.138;2022-08-19T12:09:29;7.90;85.40
39931;DHT22;26635;-35.248;149.138;2022-08-19T12:13:06;8.00;85.70
39931;DHT22;26635;-35.248;149.138;2022-08-19T12:15:58;7.90;85.40
39931;DHT22;26635;-35.248;149.138;2022-08-19T12:19:22;8.00;86.90
39931;DHT22;26635;-35.248;149.138;2022-08-19T12:22:40;7.90;85.70
39931;DHT22;26635;-35.248;149.138;2022-08-19T12:26:18;7.90;86.00
39931;DHT22;26635;-35.248;149.138;2022-08-19T12:32:57;8.00;86.90
39931;DHT22;26635;-35.248;149.138;2022-08-19T12:35:48;8.00;86.90
39931;DHT22;26635;-35.248;149.138;2022-08-19T12:38:38;8.00;87.90
39931;DHT22;26635;-35.248;149.138;2022-08-19T12:41:24;7.90;88.40
39931;DHT22;26635;-35.248;149.138;2022-08-19T12:44:06;7.90;88.50
39931;DHT22;26635;-35.248;149.138;2022-08-19T12:46:59;7.80;88.60
39931;DHT22;26635;-35.248;149.138;2022-08-19T12:50:45;7.80;88.20
39931;DHT22;26635;-35.248;149.138;2022-08-19T12:54:24;7.70;88.70
39931;DHT22;26635;-35.248;149.138;2022-08-19T12:57:28;7.60;89.20
39931;DHT22;26635;-35.248;149.138;2022-08-19T13:00:34;7.60;88.70
39931;DHT22;26635;-35.248;149.138;2022-08-19T13:03:19;7.50;89.00
39931;DHT22;26635;-35.248;149.138;2022-08-19T13:05:56;7.50;89.70
39931;DHT22;26635;-35.248;149.138;2022-08-19T13:08:28;7.50;88.90
39931;DHT22;26635;-35.248;149.138;2022-08-19T13:11:21;7.40;88.70
39931;DHT22;26635;-35.248;149.138;2022-08-19T13:13:55;7.40;88.80
39931;DHT22;26635;-35.248;149.138;2022-08-19T13:16:27;7.40;89.30
39931;DHT22;26635;-35.248;149.138;2022-08-19T13:18:59;7.30;89.50
39931;DHT22;26635;-35.248;149.138;2022-08-19T13:21:33;7.30;89.30
39931;DHT22;26635;-35.248;149.138;2022-08-19T13:24:19;7.20;89.80
39931;DHT22;26635;-35.248;149.138;2022-08-19T13:27:01;7.10;89.50
39931;DHT22;26635;-35.248;149.138;2022-08-19T13:29:34;7.10;90.20
39931;DHT22;26635;-35.248;149.138;2022-08-19T13:32:26;7.10;90.30
39931;DHT22;26635;-35.248;149.138;2022-08-19T13:35:19;7.00;90.40
39931;DHT22;26635;-35.248;149.138;2022-08-19T13:38:02;7.00;90.50
39931;DHT22;26635;-35.248;149.138;2022-08-19T13:40:40;7.00;90.40
39931;DHT22;26635;-35.248;149.138;2022-08-19T13:43:39;7.00;90.40
39931;DHT22;26635;-35.248;149.138;2022-08-19T13:49:34;7.00;90.50
39931;DHT22;26635;-35.248;149.138;2022-08-19T13:52:56;7.10;90.50
39931;DHT22;26635;-35.248;149.138;2022-08-19T13:55:33;7.10;90.50
39931;DHT22;26635;-35.248;149.138;2022-08-19T13:58:24;7.10;90.30
39931;DHT22;26635;-35.248;149.138;2022-08-19T14:01:19;7.10;90.70
39931;DHT22;26635;-35.248;149.138;2022-08-19T14:03:53;7.00;90.50
39931;DHT22;26635;-35.248;149.138;2022-08-19T14:06:40;7.00;90.40
39931;DHT22;26635;-35.248;149.138;2022-08-19T14:09:58;7.00;90.30
39931;DHT22;26635;-35.248;149.138;2022-08-19T14:12:41;6.90;90.40
39931;DHT22;26635;-35.248;149.138;2022-08-19T14:15:21;6.90;90.60
39931;DHT22;26635;-35.248;149.138;2022-08-19T14:18:13;6.90;90.40
39931;DHT22;26635;-35.248;149.138;2022-08-19T14:20:58;6.90;90.60
39931;DHT22;26635;-35.248;149.138;2022-08-19T14:23:56;6.80;90.40
39931;DHT22;26635;-35.248;149.138;2022-08-19T14:26:31;6.70;90.90
39931;DHT22;26635;-35.248;149.138;2022-08-19T14:29:26;6.70;91.20
39931;DHT22;26635;-35.248;149.138;2022-08-19T14:32:11;6.60;91.30
39931;DHT22;26635;-35.248;149.138;2022-08-19T14:35:15;6.60;91.50
39931;DHT22;26635;-35.248;149.138;2022-08-19T14:38:38;6.60;91.20
39931;DHT22;26635;-35.248;149.138;2022-08-19T14:41:44;6.60;92.40
39931;DHT22;26635;-35.248;149.138;2022-08-19T14:48:56;6.70;91.50
39931;DHT22;26635;-35.248;149.138;2022-08-19T14:51:46;6.70;91.00
39931;DHT22;26635;-35.248;149.138;2022-08-19T14:54:37;6.80;91.50
39931;DHT22;26635;-35.248;149.138;2022-08-19T14:57:27;6.80;91.50
39931;DHT22;26635;-35.248;149.138;2022-08-19T15:00:09;6.80;91.20
39931;DHT22;26635;-35.248;149.138;2022-08-19T15:03:04;6.80;91.10
39931;DHT22;26635;-35.248;149.138;2022-08-19T15:05:45;6.80;91.30
39931;DHT22;26635;-35.248;149.138;2022-08-19T15:08:57;6.80;91.00
39931;DHT22;26635;-35.248;149.138;2022-08-19T15:11:57;6.80;91.10
39931;DHT22;26635;-35.248;149.138;2022-08-19T15:15:13;6.80;91.40
39931;DHT22;26635;-35.248;149.138;2022-08-19T15:18:02;6.70;91.30
39931;DHT22;26635;-35.248;149.138;2022-08-19T15:20:48;6.70;91.30
39931;DHT22;26635;-35.248;149.138;2022-08-19T15:24:26;6.70;91.30
39931;DHT22;26635;-35.248;149.138;2022-08-19T15:27:38;6.70;91.20
39931;DHT22;26635;-35.248;149.138;2022-08-19T15:34:11;6.70;91.20
39931;DHT22;26635;-35.248;149.138;2022-08-19T15:37:06;6.70;91.20
39931;DHT22;26635;-35.248;149.138;2022-08-19T15:39:38;6.70;91.30
39931;DHT22;26635;-35.248;149.138;2022-08-19T15:43:10;6.70;91.40
39931;DHT22;26635;-35.248;149.138;2022-08-19T15:45:48;6.80;91.30
39931;DHT22;26635;-35.248;149.138;2022-08-19T15:48:43;6.80;91.30
39931;DHT22;26635;-35.248;149.138;2022-08-19T15:51:48;6.90;91.30
39931;DHT22;26635;-35.248;149.138;2022-08-19T15:55:04;6.90;90.70
39931;DHT22;26635;-35.248;149.138;2022-08-19T15:58:21;6.90;90.70
39931;DHT22;26635;-35.248;149.138;2022-08-19T16:01:31;7.00;90.70
39931;DHT22;26635;-35.248;149.138;2022-08-19T16:05:09;7.00;90.40
39931;DHT22;26635;-35.248;149.138;2022-08-19T16:08:22;7.00;90.60
39931;DHT22;26635;-35.248;149.138;2022-08-19T16:11:49;6.90;90.50
39931;DHT22;26635;-35.248;149.138;2022-08-19T16:14:40;6.90;90.30
39931;DHT22;26635;-35.248;149.138;2022-08-19T16:17:40;6.80;90.20
39931;DHT22;26635;-35.248;149.138;2022-08-19T16:24:19;6.70;90.50
39931;DHT22;26635;-35.248;149.138;2022-08-19T16:28:19;6.70;90.50
39931;DHT22;26635;-35.248;149.138;2022-08-19T16:31:17;6.70;90.30
39931;DHT22;26635;-35.248;149.138;2022-08-19T16:34:17;6.70;90.50
39931;DHT22;26635;-35.248;149.138;2022-08-19T16:37:51;6.70;90.50
39931;DHT22;26635;-35.248;149.138;2022-08-19T16:40:59;6.70;90.10
39931;DHT22;26635;-35.248;149.138;2022-08-19T16:44:07;6.70;90.10
39931;DHT22;26635;-35.248;149.138;2022-08-19T16:47:14;6.80;90.60
39931;DHT22;26635;-35.248;149.138;2022-08-19T16:50:23;6.80;90.70
39931;DHT22;26635;-35.248;149.138;2022-08-19T16:53:24;6.80;89.80
39931;DHT22;26635;-35.248;149.138;2022-08-19T16:56:49;6.80;90.00
39931;DHT22;26635;-35.248;149.138;2022-08-19T17:00:20;6.80;89.50
39931;DHT22;26635;-35.248;149.138;2022-08-19T17:03:13;6.80;90.60
39931;DHT22;26635;-35.248;149.138;2022-08-19T17:06:15;6.80;90.00
39931;DHT22;26635;-35.248;149.138;2022-08-19T17:09:13;6.90;89.60
39931;DHT22;26635;-35.248;149.138;2022-08-19T17:12:33;6.90;88.70
39931;DHT22;26635;-35.248;149.138;2022-08-19T17:15:28;6.90;89.70
39931;DHT22;26635;-35.248;149.138;2022-08-19T17:19:04;6.90;89.70
39931;DHT22;26635;-35.248;149.138;2022-08-19T17:22:13;6.90;89.30
39931;DHT22;26635;-35.248;149.138;2022-08-19T17:25:02;6.90;89.80
39931;DHT22;26635;-35.248;149.138;2022-08-19T17:27:48;7.00;89.00
39931;DHT22;26635;-35.248;149.138;2022-08-19T17:30:26;7.00;89.00
39931;DHT22;26635;-35.248;149.138;2022-08-19T17:33:05;7.10;89.50